Chadstone Weather > Observations for 13/10/20

Select Day:



Observations
Time Temp Hum DP Wind Gust Dir Rain >9am Press
C % C kph kph mm hPa
00:00 18.4 60 10.5 3.8 8.6 NNW 0.0 1024.8
00:10 18.3 60 10.4 3.5 7.2 N 0.0 1024.9
00:20 18.2 60 10.3 3.3 7.2 N 0.0 1024.9
00:30 18.2 59 10.1 4.0 9.7 N 0.0 1024.8
00:40 18.4 58 10.0 6.3 12.2 NNW 0.0 1024.9
00:50 18.5 58 10.1 6.0 12.2 N 0.0 1024.7
01:00 18.6 57 9.9 6.2 12.2 N 0.0 1024.7
01:10 18.6 57 9.9 6.1 12.2 N 0.0 1024.7
01:20 18.6 57 9.9 5.6 9.7 N 0.0 1024.6
01:30 18.4 57 9.7 3.8 8.6 NNW 0.0 1024.6
01:40 18.2 58 9.8 3.0 6.1 NW 0.0 1024.7
01:50 18.0 59 9.9 4.0 11.2 NNW 0.0 1024.4
02:00 18.0 58 9.6 4.4 8.6 NW 0.0 1024.3
02:10 18.0 59 9.9 4.9 13.3 WSW 0.0 1025.0
02:20 18.1 59 10.0 2.5 11.2 W 0.0 1025.0
02:30 18.2 59 10.1 5.9 13.3 WNW 0.0 1025.3
02:40 17.4 68 11.4 3.4 13.3 S 0.0 1025.3
02:50 16.3 75 11.9 2.0 8.6 SSW 0.0 1025.5
03:00 15.8 79 12.2 4.8 14.8 SW 0.0 1025.7
03:10 15.4 83 12.5 4.0 13.3 SSW 0.0 1025.8
03:20 15.2 84 12.5 4.7 12.2 WSW 0.0 1025.8
03:30 15.1 85 12.6 3.4 9.7 S 0.0 1026.1
03:40 15.1 86 12.8 3.5 11.2 SW 0.0 1026.2
03:50 15.1 87 13.0 2.7 12.2 S 0.0 1026.2
04:00 15.1 88 13.1 2.7 9.7 SSW 0.0 1026.3
04:10 15.1 88 13.1 3.0 9.7 SSW 0.0 1026.5
04:20 15.1 88 13.1 1.3 8.6 S 0.0 1026.6
04:30 15.2 88 13.2 1.3 7.2 SW 0.0 1026.8
04:40 15.2 88 13.2 1.0 8.6 SSW 0.0 1027.0
04:50 15.1 88 13.1 2.2 9.7 SSW 0.0 1027.1
05:00 15.0 88 13.0 2.3 11.2 WSW 0.0 1027.1
05:10 14.9 89 13.1 1.6 9.7 SSW 0.0 1027.3
05:20 14.8 89 13.0 1.2 6.1 SSW 0.0 1027.3
05:30 14.8 89 13.0 1.6 9.7 SSW 0.0 1027.4
05:40 14.7 89 12.9 0.8 6.1 SSW 0.0 1027.5
05:50 14.8 89 13.0 0.4 6.1 SSW 0.0 1027.7
06:00 14.8 88 12.8 0.7 8.6 SSW 0.0 1027.8
06:10 14.8 88 12.8 0.6 6.1 SW 0.0 1027.9
06:20 14.8 88 12.8 0.9 5.0 SSW 0.0 1028.1
06:30 14.7 88 12.7 1.4 7.2 SW 0.0 1028.1
06:40 14.7 88 12.7 0.9 6.1 S 0.0 1028.2
06:50 14.6 88 12.6 1.1 6.1 SSW 0.0 1028.4
07:00 14.4 89 12.6 0.2 5.0 SSW 0.0 1028.7
07:10 14.2 90 12.6 0.2 5.0 S 0.0 1029.0
07:20 14.1 90 12.5 0.2 5.0 SSW 0.0 1029.3
07:30 13.9 92 12.6 0.8 8.6 SW 0.0 1029.4
07:40 13.6 93 12.5 0.7 9.7 SW 0.0 1029.6
07:50 13.6 94 12.7 0.0 3.6 S 0.0 1029.7
08:00 13.8 94 12.9 0.7 8.6 SE 0.0 1030.0
08:10 13.8 95 13.0 0.3 7.2 S 0.0 1030.2
08:20 13.8 95 13.0 0.7 6.1 SSW 0.0 1030.3
08:30 13.8 95 13.0 2.9 9.7 S 0.0 1030.4
08:40 13.9 94 13.0 1.3 7.2 SSE 0.0 1030.5
08:50 14.0 93 12.9 2.4 7.2 SSE 0.0 1030.6
09:00 14.3 92 13.0 1.6 7.2 SSE 0.0 1030.6
09:10 14.4 91 13.0 2.5 11.2 SSE 0.0 1030.6
09:20 14.2 90 12.6 2.5 9.7 S 0.0 1030.8
09:30 14.3 90 12.7 3.1 9.7 SSE 0.0 1030.6
09:40 14.5 90 12.9 2.0 7.2 SSE 0.0 1030.8
09:50 14.7 90 13.1 4.7 14.8 SSE 0.0 1030.8
10:00 14.7 89 12.9 5.4 14.8 SSE 0.0 1031.0
10:10 14.8 89 13.0 7.4 15.8 SSE 0.0 1030.9
10:20 14.9 88 12.9 6.6 15.8 SE 0.0 1030.9
10:30 15.0 87 12.9 7.3 18.4 SSE 0.0 1030.8
10:40 15.3 86 13.0 6.7 15.8 SSE 0.0 1031.0
10:50 15.5 85 13.0 5.5 14.8 SSE 0.0 1030.9
11:00 15.8 84 13.1 5.8 14.8 SSE 0.0 1030.9
11:10 15.9 83 13.0 7.5 15.8 SE 0.0 1031.2
11:20 15.9 82 12.8 6.9 14.8 S 0.0 1031.0
11:30 16.1 79 12.5 6.7 13.3 S 0.0 1031.0
11:40 16.1 78 12.3 2.2 12.2 WSW 0.0 1031.1
11:50 16.4 77 12.4 5.1 14.8 SSE 0.0 1031.9
12:00 16.4 76 12.2 1.8 8.6 SSW 0.0 1032.1
12:10 16.4 76 12.2 3.1 15.8 SSW 0.0 1032.2
12:20 16.4 75 12.0 2.2 15.8 SSW 0.0 1032.2
12:30 16.3 75 11.9 2.8 13.3 SSW 0.0 1032.3
12:40 16.3 74 11.7 5.2 17.3 S 0.0 1032.2
12:50 16.3 73 11.5 4.6 15.8 SW 0.0 1032.5
13:00 16.5 73 11.7 4.2 13.3 SW 0.0 1032.2
13:10 16.9 73 12.0 5.6 17.3 SW 0.0 1032.0
13:20 16.9 71 11.6 5.2 15.8 S 0.0 1031.9
13:30 17.0 71 11.7 3.6 15.8 SW 0.0 1031.9
13:40 17.0 69 11.3 5.7 15.8 S 0.0 1032.0
13:50 17.2 70 11.7 4.7 13.3 S 0.0 1031.9
14:00 17.5 69 11.8 4.8 13.3 WSW 0.0 1031.9
14:10 17.3 68 11.3 4.2 12.2 S 0.0 1031.8
14:20 17.1 68 11.2 3.7 13.3 S 0.0 1031.8
14:30 17.0 68 11.1 3.9 13.3 SSW 0.0 1031.9
14:40 17.1 68 11.2 3.4 20.9 SSE 0.0 1031.8
14:50 17.2 67 11.0 5.6 15.8 SSE 0.0 1031.9
15:00 17.1 66 10.7 4.8 15.8 SW 0.0 1031.7
15:10 17.4 66 11.0 3.3 13.3 S 0.0 1031.5
15:20 17.4 65 10.8 4.9 17.3 SSW 0.0 1031.5
15:30 17.3 65 10.7 6.5 17.3 SSW 0.0 1031.5
15:40 17.1 65 10.5 4.7 17.3 SW 0.0 1031.4
15:50 17.0 66 10.6 3.6 13.3 SSW 0.0 1031.4
16:00 16.8 67 10.6 4.1 9.7 SSW 0.0 1031.4
16:10 16.6 67 10.5 5.7 17.3 SSW 0.0 1031.5
16:20 16.6 68 10.7 4.7 14.8 SSE 0.0 1031.5
16:30 16.4 68 10.5 3.8 13.3 SSW 0.0 1031.6
16:40 16.2 70 10.7 3.7 14.8 SW 0.0 1031.5
16:50 16.2 71 10.9 4.3 14.8 S 0.0 1031.5
17:00 16.5 70 11.0 2.8 18.4 SSW 0.0 1031.2
17:10 16.4 69 10.7 3.2 18.4 SSW 0.0 1031.3
17:20 16.5 69 10.8 4.9 12.2 S 0.0 1031.3
17:30 16.6 69 10.9 3.1 9.7 SW 0.0 1031.4
17:40 16.5 68 10.6 3.9 14.8 S 0.0 1031.4
17:50 16.6 68 10.7 7.2 13.3 W 0.0 1031.6
18:00 16.6 68 10.7 4.6 12.2 SSE 0.0 1031.6
18:10 16.4 67 10.3 7.5 15.8 S 0.0 1031.6
18:20 16.2 68 10.3 4.6 15.8 SSW 0.0 1031.7
18:30 16.1 68 10.2 3.8 13.3 SSW 0.0 1031.6
18:40 16.1 68 10.2 6.0 12.2 SSE 0.0 1031.8
18:50 16.2 69 10.5 7.3 19.4 SE 0.0 1031.8
19:00 16.0 69 10.3 7.1 17.3 SSE 0.0 1031.9
19:10 15.9 70 10.4 4.7 19.4 SSE 0.0 1032.0
19:20 15.6 71 10.4 9.1 19.4 SSE 0.0 1032.0
19:30 15.5 72 10.5 6.7 18.4 SE 0.0 1032.1
19:40 15.4 73 10.6 7.3 13.3 S 0.0 1032.1
19:50 15.2 74 10.6 2.9 9.7 S 0.0 1032.3
20:00 15.1 75 10.7 5.1 15.8 S 0.0 1032.3
20:10 15.0 75 10.6 6.0 15.8 SSE 0.0 1032.3
20:20 14.9 77 10.9 4.9 14.8 S 0.0 1032.2
20:30 14.6 79 11.0 4.9 13.3 SSE 0.0 1032.1
20:40 14.6 80 11.2 7.0 15.8 SSE 0.0 1032.4
20:50 14.7 82 11.7 7.4 19.4 SSE 0.0 1032.2
21:00 14.6 83 11.8 8.3 19.4 SE 0.0 1032.2
21:10 14.6 83 11.8 7.7 15.8 SE 0.0 1032.2
21:20 14.6 83 11.8 7.8 17.3 SSE 0.0 1032.2
21:30 14.6 83 11.8 8.1 17.3 SSE 0.0 1032.1
21:40 14.5 84 11.8 10.4 19.4 SE 0.0 1032.1
21:50 14.4 84 11.7 6.7 17.3 SE 0.0 1032.1
22:00 14.3 84 11.6 7.9 14.8 SSE 0.0 1032.1
22:10 14.1 84 11.4 6.1 12.2 SSE 0.0 1032.1
22:20 14.0 85 11.5 4.6 9.7 SE 0.0 1032.1
22:30 13.9 86 11.6 5.1 9.7 SE 0.0 1032.0
22:40 13.8 86 11.5 5.8 11.2 SE 0.0 1032.1
22:50 13.7 86 11.4 4.5 12.2 SE 0.0 1032.0
23:00 13.6 86 11.3 4.2 12.2 SE 0.0 1032.1
23:10 13.5 87 11.4 4.3 9.7 SSE 0.0 1032.1
23:20 13.5 87 11.4 4.9 9.7 SE 0.0 1032.1
23:30 13.4 87 11.3 4.5 11.2 SSE 0.0 1032.0
23:40 13.3 87 11.2 4.7 11.2 SSE 0.0 1032.0
23:50 13.3 87 11.2 3.1 8.6 SE 0.0 1031.8